THY126 UUWW-LTFM
Flight info
| Callsign | THY126 |
|---|---|
| Flight time | N/A |
| Altitude | 38000 |
| Route | K0872F380 POKAG3Z POKAG N858 VEPIS Y219 LAPKI N869 OSMUS Z369 BRT L856 TOSPO/N0468F380 DCT LUGUG DCT GAWOR/N0469F400 DCT ROBTU/N0465F390 DCT KENIN DCT LARMU DCT RUTUV DCT RONBU DCT BUVAK DCT EMO DCT VABUR DCT RIXEN RIXEN2A |
| Aircraft | A333/H-SDE3GHIJ2J3J5M1RVWXY/LB2D1 |
Departure
| Time | 2026-05-06 09:06 |
|---|---|
| Airport | Vnukovo International Airport (UUWW) |
Arrival
| Time | N/A |
|---|---|
| Airport | İstanbul Airport (LTFM) |
| Time | Latitude | Longitude | Altitude | Speed | Heading |
|---|---|---|---|---|---|
| 2026-05-06 08:48 | 55.60415 | 37.28133 | 683 ft | 0 kts | 154° |
| 2026-05-06 08:58 | 55.60439 | 37.28113 | 677 ft | 4 kts | 155° |
| 2026-05-06 08:58 | 55.60463 | 37.28093 | 677 ft | 4 kts | 157° |
| 2026-05-06 08:58 | 55.60479 | 37.28081 | 677 ft | 4 kts | 159° |
| 2026-05-06 08:59 | 55.60508 | 37.28064 | 677 ft | 0 kts | 160° |
| 2026-05-06 09:00 | 55.60505 | 37.28062 | 677 ft | 1 kts | 177° |
| 2026-05-06 09:01 | 55.60493 | 37.28039 | 676 ft | 6 kts | 227° |
| 2026-05-06 09:01 | 55.60448 | 37.27950 | 680 ft | 14 kts | 228° |
| 2026-05-06 09:01 | 55.60361 | 37.27864 | 680 ft | 14 kts | 192° |
| 2026-05-06 09:01 | 55.60268 | 37.27846 | 677 ft | 13 kts | 186° |
| 2026-05-06 09:02 | 55.60181 | 37.27862 | 678 ft | 12 kts | 158° |
| 2026-05-06 09:02 | 55.60115 | 37.27949 | 678 ft | 12 kts | 130° |
| 2026-05-06 09:02 | 55.60080 | 37.28073 | 677 ft | 11 kts | 102° |
| 2026-05-06 09:02 | 55.60078 | 37.28202 | 681 ft | 11 kts | 86° |
| 2026-05-06 09:03 | 55.60085 | 37.28334 | 680 ft | 11 kts | 84° |
| 2026-05-06 09:03 | 55.60111 | 37.28454 | 680 ft | 11 kts | 49° |
| 2026-05-06 09:03 | 55.60167 | 37.28567 | 678 ft | 15 kts | 47° |
| 2026-05-06 09:03 | 55.60206 | 37.28698 | 678 ft | 11 kts | 111° |
| 2026-05-06 09:04 | 55.60158 | 37.28803 | 682 ft | 11 kts | 135° |
| 2026-05-06 09:04 | 55.60094 | 37.28874 | 680 ft | 11 kts | 160° |
| 2026-05-06 09:04 | 55.60025 | 37.28906 | 683 ft | 9 kts | 166° |
| 2026-05-06 09:04 | 55.59958 | 37.28936 | 683 ft | 12 kts | 166° |
| 2026-05-06 09:05 | 55.59870 | 37.28975 | 688 ft | 12 kts | 166° |
| 2026-05-06 09:05 | 55.59803 | 37.28977 | 688 ft | 9 kts | 206° |
| 2026-05-06 09:05 | 55.59774 | 37.28893 | 686 ft | 4 kts | 247° |
| 2026-05-06 09:05 | 55.59771 | 37.28879 | 686 ft | 3 kts | 247° |
| 2026-05-06 09:06 | 55.59714 | 37.28653 | 687 ft | 48 kts | 247° |
| 2026-05-06 09:06 | 55.59506 | 37.27711 | 676 ft | 115 kts | 248° |
| 2026-05-06 09:06 | 55.59138 | 37.26062 | 749 ft | 164 kts | 248° |
| 2026-05-06 09:06 | 55.58647 | 37.24294 | 1587 ft | 160 kts | 237° |
| 2026-05-06 09:07 | 55.57953 | 37.22704 | 2350 ft | 169 kts | 237° |
| 2026-05-06 09:07 | 55.57218 | 37.20976 | 2610 ft | 189 kts | 239° |
| 2026-05-06 09:07 | 55.56436 | 37.18958 | 2952 ft | 207 kts | 240° |
| 2026-05-06 09:07 | 55.55639 | 37.16776 | 3571 ft | 212 kts | 241° |
| 2026-05-06 09:08 | 55.54999 | 37.14447 | 4270 ft | 212 kts | 256° |
| 2026-05-06 09:08 | 55.54792 | 37.11771 | 4636 ft | 230 kts | 268° |
| 2026-05-06 09:08 | 55.54850 | 37.08870 | 5160 ft | 240 kts | 278° |
| 2026-05-06 09:08 | 55.55405 | 37.06041 | 5849 ft | 251 kts | 298° |
| 2026-05-06 09:09 | 55.56613 | 37.03797 | 6679 ft | 258 kts | 322° |
| 2026-05-06 09:09 | 55.58325 | 37.02619 | 7395 ft | 277 kts | 345° |
| 2026-05-06 09:09 | 55.60333 | 37.02393 | 7781 ft | 302 kts | 354° |
| 2026-05-06 09:09 | 55.62541 | 37.02426 | 7840 ft | 332 kts | 355° |
| 2026-05-06 09:10 | 55.64810 | 37.02011 | 7849 ft | 317 kts | 339° |
| 2026-05-06 09:10 | 55.66799 | 37.00810 | 7863 ft | 296 kts | 333° |
| 2026-05-06 09:10 | 55.68657 | 36.99488 | 7861 ft | 280 kts | 332° |
| 2026-05-06 09:10 | 55.70419 | 36.98196 | 7862 ft | 269 kts | 331° |
| 2026-05-06 09:11 | 55.72142 | 36.96916 | 7862 ft | 268 kts | 331° |
| 2026-05-06 09:11 | 55.73865 | 36.95619 | 7859 ft | 269 kts | 331° |
| 2026-05-06 09:11 | 55.75584 | 36.94303 | 7859 ft | 269 kts | 330° |
| 2026-05-06 09:11 | 55.77301 | 36.92988 | 7856 ft | 269 kts | 330° |
| 2026-05-06 09:12 | 55.79019 | 36.91669 | 7855 ft | 269 kts | 330° |
| 2026-05-06 09:12 | 55.80634 | 36.90063 | 7921 ft | 261 kts | 316° |
| 2026-05-06 09:12 | 55.81786 | 36.87658 | 8319 ft | 254 kts | 294° |
| 2026-05-06 09:12 | 55.82373 | 36.84716 | 9117 ft | 251 kts | 282° |
| 2026-05-06 09:13 | 55.82755 | 36.81705 | 10017 ft | 249 kts | 279° |
| 2026-05-06 09:13 | 55.83110 | 36.78613 | 10471 ft | 264 kts | 278° |
| 2026-05-06 09:13 | 55.83281 | 36.75290 | 10699 ft | 283 kts | 266° |
| 2026-05-06 09:13 | 55.82839 | 36.71769 | 10914 ft | 303 kts | 250° |
| 2026-05-06 09:14 | 55.81936 | 36.68240 | 11147 ft | 322 kts | 246° |
| 2026-05-06 09:14 | 55.80907 | 36.64616 | 11504 ft | 334 kts | 245° |
| 2026-05-06 09:14 | 55.79847 | 36.60909 | 12034 ft | 340 kts | 245° |
| 2026-05-06 09:14 | 55.78773 | 36.57129 | 12634 ft | 343 kts | 245° |
| 2026-05-06 09:15 | 55.78115 | 36.54801 | 13008 ft | 346 kts | 245° |
| 2026-05-06 09:15 | 55.77490 | 36.52583 | 13337 ft | 348 kts | 245° |
| 2026-05-06 09:15 | 55.76472 | 36.48651 | 13825 ft | 353 kts | 251° |
| 2026-05-06 09:16 | 55.75756 | 36.44472 | 14353 ft | 355 kts | 256° |
| 2026-05-06 09:16 | 55.75159 | 36.40186 | 14870 ft | 359 kts | 257° |
| 2026-05-06 09:16 | 55.74575 | 36.35856 | 15386 ft | 363 kts | 257° |
| 2026-05-06 09:16 | 55.73983 | 36.31479 | 15910 ft | 366 kts | 257° |
| 2026-05-06 09:17 | 55.73382 | 36.27070 | 16430 ft | 369 kts | 257° |
| 2026-05-06 09:17 | 55.72771 | 36.22621 | 16925 ft | 373 kts | 257° |
| 2026-05-06 09:17 | 55.72154 | 36.18141 | 17424 ft | 376 kts | 257° |
| 2026-05-06 09:17 | 55.71527 | 36.13611 | 17918 ft | 380 kts | 257° |
| 2026-05-06 09:18 | 55.70892 | 36.09043 | 18362 ft | 383 kts | 257° |
| 2026-05-06 09:18 | 55.70251 | 36.04446 | 18811 ft | 385 kts | 257° |
| 2026-05-06 09:18 | 55.69604 | 35.99818 | 19277 ft | 387 kts | 257° |
| 2026-05-06 09:18 | 55.68963 | 35.95248 | 19737 ft | 388 kts | 257° |
| 2026-05-06 09:19 | 55.68308 | 35.90592 | 20181 ft | 390 kts | 257° |
| 2026-05-06 09:19 | 55.67648 | 35.85909 | 20611 ft | 392 kts | 257° |
| 2026-05-06 09:19 | 55.66982 | 35.81204 | 20998 ft | 395 kts | 257° |
| 2026-05-06 09:19 | 55.66310 | 35.76471 | 21443 ft | 397 kts | 257° |
| 2026-05-06 09:20 | 55.65632 | 35.71714 | 21881 ft | 399 kts | 257° |
| 2026-05-06 09:20 | 55.64952 | 35.66946 | 22283 ft | 401 kts | 257° |
| 2026-05-06 09:20 | 55.64264 | 35.62144 | 22697 ft | 403 kts | 257° |
| 2026-05-06 09:20 | 55.63583 | 35.57319 | 23098 ft | 405 kts | 258° |
| 2026-05-06 09:21 | 55.63085 | 35.52404 | 23493 ft | 406 kts | 263° |
| 2026-05-06 09:21 | 55.62731 | 35.47431 | 23815 ft | 408 kts | 264° |
| 2026-05-06 09:21 | 55.62445 | 35.42422 | 24133 ft | 410 kts | 265° |
| 2026-05-06 09:21 | 55.62185 | 35.37382 | 24461 ft | 412 kts | 265° |
| 2026-05-06 09:22 | 55.61927 | 35.32315 | 24789 ft | 414 kts | 265° |
| 2026-05-06 09:22 | 55.61660 | 35.27241 | 25107 ft | 415 kts | 265° |
| 2026-05-06 09:22 | 55.61384 | 35.22208 | 25421 ft | 417 kts | 265° |
| 2026-05-06 09:22 | 55.61094 | 35.17091 | 25739 ft | 419 kts | 265° |
| 2026-05-06 09:23 | 55.60794 | 35.11948 | 26045 ft | 421 kts | 265° |
| 2026-05-06 09:23 | 55.60489 | 35.06781 | 26263 ft | 424 kts | 265° |
| 2026-05-06 09:23 | 55.60180 | 35.01572 | 26495 ft | 427 kts | 265° |
| 2026-05-06 09:23 | 55.59870 | 34.96361 | 26808 ft | 428 kts | 265° |
| 2026-05-06 09:24 | 55.59555 | 34.91108 | 27119 ft | 430 kts | 265° |
| 2026-05-06 09:24 | 55.59239 | 34.85846 | 27411 ft | 431 kts | 265° |
| 2026-05-06 09:24 | 55.58922 | 34.80623 | 27692 ft | 433 kts | 265° |
| 2026-05-06 09:24 | 55.58599 | 34.75317 | 27976 ft | 435 kts | 265° |
| 2026-05-06 09:25 | 55.58273 | 34.70009 | 28252 ft | 436 kts | 265° |
| 2026-05-06 09:25 | 55.57941 | 34.64656 | 28516 ft | 438 kts | 265° |
| 2026-05-06 09:25 | 55.57607 | 34.59291 | 28784 ft | 439 kts | 265° |
| 2026-05-06 09:25 | 55.57269 | 34.53915 | 29040 ft | 441 kts | 265° |
| 2026-05-06 09:26 | 55.56928 | 34.48515 | 29315 ft | 443 kts | 265° |
| 2026-05-06 09:26 | 55.56584 | 34.43113 | 29678 ft | 442 kts | 265° |
| 2026-05-06 09:26 | 55.56239 | 34.37740 | 30083 ft | 440 kts | 265° |
| 2026-05-06 09:26 | 55.55892 | 34.32380 | 30396 ft | 438 kts | 265° |
| 2026-05-06 09:27 | 55.55545 | 34.27050 | 30855 ft | 434 kts | 265° |
| 2026-05-06 09:27 | 55.55198 | 34.21750 | 31095 ft | 435 kts | 265° |
| 2026-05-06 09:27 | 55.54848 | 34.16437 | 31320 ft | 436 kts | 265° |
| 2026-05-06 09:27 | 55.54496 | 34.11123 | 31612 ft | 435 kts | 265° |
| 2026-05-06 09:28 | 55.54142 | 34.05820 | 31940 ft | 434 kts | 265° |
| 2026-05-06 09:28 | 55.53787 | 34.00535 | 32244 ft | 433 kts | 265° |
| 2026-05-06 09:28 | 55.53429 | 33.95252 | 32544 ft | 432 kts | 265° |
| 2026-05-06 09:28 | 55.53070 | 33.89992 | 32843 ft | 431 kts | 265° |
| 2026-05-06 09:29 | 55.52710 | 33.84739 | 33134 ft | 431 kts | 265° |
| 2026-05-06 09:29 | 55.52348 | 33.79498 | 33426 ft | 430 kts | 265° |
| 2026-05-06 09:29 | 55.51985 | 33.74273 | 33709 ft | 429 kts | 265° |
| 2026-05-06 09:29 | 55.51624 | 33.69106 | 33980 ft | 428 kts | 265° |
| 2026-05-06 09:30 | 55.51140 | 33.63920 | 34188 ft | 429 kts | 260° |
| 2026-05-06 09:30 | 55.50474 | 33.58767 | 34381 ft | 430 kts | 259° |
| 2026-05-06 09:30 | 55.49766 | 33.53643 | 34627 ft | 429 kts | 258° |
| 2026-05-06 09:30 | 55.49035 | 33.48561 | 34864 ft | 428 kts | 258° |
| 2026-05-06 09:31 | 55.48290 | 33.43471 | 34952 ft | 430 kts | 257° |
| 2026-05-06 09:31 | 55.47533 | 33.38346 | 35090 ft | 431 kts | 257° |
| 2026-05-06 09:31 | 55.46872 | 33.33879 | 35262 ft | 431 kts | 257° |
| 2026-05-06 09:31 | 55.46116 | 33.28771 | 35490 ft | 430 kts | 257° |
| 2026-05-06 09:32 | 55.45359 | 33.23657 | 35680 ft | 430 kts | 257° |
| 2026-05-06 09:32 | 55.44605 | 33.18567 | 35867 ft | 430 kts | 257° |
| 2026-05-06 09:32 | 55.43850 | 33.13476 | 36041 ft | 430 kts | 257° |
| 2026-05-06 09:32 | 55.43091 | 33.08375 | 36216 ft | 430 kts | 257° |
| 2026-05-06 09:33 | 55.42331 | 33.03276 | 36386 ft | 430 kts | 257° |
| 2026-05-06 09:33 | 55.41571 | 32.98195 | 36568 ft | 430 kts | 257° |
| 2026-05-06 09:33 | 55.40817 | 32.93175 | 36725 ft | 430 kts | 256° |
| 2026-05-06 09:33 | 55.40052 | 32.88094 | 36899 ft | 429 kts | 256° |
| 2026-05-06 09:34 | 55.39284 | 32.83012 | 37070 ft | 429 kts | 256° |
| 2026-05-06 09:34 | 55.38514 | 32.77931 | 37175 ft | 430 kts | 256° |
| 2026-05-06 09:34 | 55.37740 | 32.72836 | 37283 ft | 431 kts | 256° |
| 2026-05-06 09:34 | 55.36966 | 32.67763 | 37537 ft | 429 kts | 256° |
| 2026-05-06 09:35 | 55.36190 | 32.62698 | 37754 ft | 428 kts | 256° |
| 2026-05-06 09:35 | 55.35415 | 32.57655 | 37884 ft | 428 kts | 256° |
| 2026-05-06 09:35 | 55.34636 | 32.52597 | 37893 ft | 428 kts | 256° |
| 2026-05-06 09:36 | 55.33076 | 32.42512 | 37892 ft | 426 kts | 256° |
| 2026-05-06 09:36 | 55.31521 | 32.32517 | 37894 ft | 427 kts | 256° |
| 2026-05-06 09:37 | 55.29947 | 32.22463 | 37894 ft | 427 kts | 255° |
| 2026-05-06 09:37 | 55.28365 | 32.12413 | 37872 ft | 427 kts | 255° |
| 2026-05-06 09:38 | 55.26773 | 32.02359 | 37897 ft | 428 kts | 255° |
| 2026-05-06 09:38 | 55.25170 | 31.92299 | 37897 ft | 428 kts | 255° |
| 2026-05-06 09:39 | 55.23569 | 31.82313 | 37895 ft | 427 kts | 255° |
| 2026-05-06 09:39 | 55.21955 | 31.72306 | 37900 ft | 426 kts | 255° |
| 2026-05-06 09:40 | 55.20335 | 31.62319 | 37897 ft | 426 kts | 255° |
| 2026-05-06 09:40 | 55.17885 | 31.47333 | 37894 ft | 426 kts | 255° |
| 2026-05-06 09:41 | 55.16241 | 31.37345 | 37903 ft | 428 kts | 255° |
| 2026-05-06 09:41 | 55.14597 | 31.27404 | 37898 ft | 428 kts | 254° |
| 2026-05-06 09:42 | 55.12931 | 31.17399 | 37897 ft | 428 kts | 254° |
| 2026-05-06 09:42 | 55.11257 | 31.07403 | 37919 ft | 428 kts | 254° |
| 2026-05-06 09:43 | 55.09371 | 30.97530 | 37898 ft | 428 kts | 248° |
| 2026-05-06 09:43 | 55.06919 | 30.88068 | 37900 ft | 428 kts | 245° |
| 2026-05-06 09:44 | 55.04348 | 30.78693 | 37893 ft | 429 kts | 245° |
| 2026-05-06 09:44 | 55.01754 | 30.69303 | 37904 ft | 430 kts | 245° |
| 2026-05-06 09:45 | 54.99171 | 30.59956 | 37905 ft | 430 kts | 245° |
| 2026-05-06 09:45 | 54.96571 | 30.50565 | 37907 ft | 430 kts | 245° |
| 2026-05-06 09:46 | 54.94405 | 30.42765 | 37907 ft | 430 kts | 245° |
| 2026-05-06 09:46 | 54.91795 | 30.33404 | 37904 ft | 430 kts | 245° |
| 2026-05-06 09:47 | 54.89174 | 30.24041 | 37903 ft | 430 kts | 245° |
| 2026-05-06 09:47 | 54.86541 | 30.14674 | 37895 ft | 431 kts | 245° |
| 2026-05-06 09:48 | 54.83922 | 30.05392 | 37891 ft | 429 kts | 245° |
| 2026-05-06 09:48 | 54.81286 | 29.96095 | 37886 ft | 429 kts | 245° |
| 2026-05-06 09:49 | 54.78642 | 29.86813 | 37892 ft | 429 kts | 245° |
| 2026-05-06 09:49 | 54.75994 | 29.77536 | 37892 ft | 429 kts | 245° |
| 2026-05-06 09:50 | 54.73338 | 29.68264 | 37887 ft | 430 kts | 244° |
| 2026-05-06 09:50 | 54.70665 | 29.58978 | 37886 ft | 431 kts | 244° |
| 2026-05-06 09:51 | 54.67982 | 29.49705 | 37889 ft | 431 kts | 244° |
| 2026-05-06 09:51 | 54.65349 | 29.40400 | 37890 ft | 431 kts | 245° |
| 2026-05-06 09:52 | 54.62781 | 29.31104 | 37879 ft | 431 kts | 245° |
| 2026-05-06 09:52 | 54.60198 | 29.21764 | 37872 ft | 431 kts | 245° |
| 2026-05-06 09:53 | 54.57610 | 29.12488 | 37874 ft | 431 kts | 245° |
| 2026-05-06 09:53 | 54.54993 | 29.03198 | 37875 ft | 431 kts | 244° |
| 2026-05-06 09:54 | 54.52375 | 28.93924 | 37878 ft | 430 kts | 245° |
| 2026-05-06 09:54 | 54.49756 | 28.84647 | 37874 ft | 430 kts | 245° |
| 2026-05-06 09:55 | 54.47215 | 28.75310 | 37876 ft | 430 kts | 247° |
| 2026-05-06 09:55 | 54.44832 | 28.65873 | 37866 ft | 431 kts | 247° |
| 2026-05-06 09:56 | 54.42459 | 28.56416 | 37870 ft | 432 kts | 247° |
| 2026-05-06 09:56 | 54.40058 | 28.46961 | 37867 ft | 432 kts | 247° |
| 2026-05-06 09:57 | 54.37638 | 28.37521 | 37869 ft | 432 kts | 246° |
| 2026-05-06 09:57 | 54.35220 | 28.28163 | 37875 ft | 432 kts | 246° |
| 2026-05-06 09:58 | 54.32771 | 28.18783 | 37861 ft | 429 kts | 249° |
| 2026-05-06 09:58 | 54.31556 | 28.14177 | 37885 ft | 416 kts | 254° |
| 2026-05-06 09:58 | 54.30346 | 28.09662 | 37866 ft | 419 kts | 246° |
| 2026-05-06 09:59 | 54.27945 | 28.00476 | 37853 ft | 426 kts | 246° |
| 2026-05-06 09:59 | 54.25519 | 27.91151 | 37854 ft | 432 kts | 246° |
| 2026-05-06 10:00 | 54.23060 | 27.81771 | 37863 ft | 432 kts | 246° |
| 2026-05-06 10:00 | 54.20605 | 27.72475 | 37855 ft | 431 kts | 245° |
| 2026-05-06 10:01 | 54.18127 | 27.63135 | 37856 ft | 431 kts | 245° |
| 2026-05-06 10:01 | 54.15641 | 27.53807 | 37853 ft | 432 kts | 245° |
| 2026-05-06 10:02 | 54.13146 | 27.44478 | 37861 ft | 433 kts | 245° |
| 2026-05-06 10:02 | 54.10623 | 27.35172 | 37849 ft | 432 kts | 243° |
| 2026-05-06 10:03 | 54.07747 | 27.26208 | 37847 ft | 431 kts | 241° |
| 2026-05-06 10:03 | 54.04773 | 27.17327 | 37845 ft | 431 kts | 240° |
| 2026-05-06 10:04 | 54.01796 | 27.08533 | 37842 ft | 431 kts | 240° |
| 2026-05-06 10:04 | 53.98793 | 26.99681 | 37842 ft | 432 kts | 240° |
| 2026-05-06 10:05 | 53.95781 | 26.90817 | 37840 ft | 433 kts | 240° |
| 2026-05-06 10:05 | 53.92771 | 26.81982 | 37840 ft | 433 kts | 240° |
| 2026-05-06 10:06 | 53.89613 | 26.73304 | 37838 ft | 433 kts | 233° |
| 2026-05-06 10:06 | 53.85595 | 26.65697 | 37837 ft | 434 kts | 227° |
| 2026-05-06 10:07 | 53.81321 | 26.58461 | 37832 ft | 435 kts | 225° |
| 2026-05-06 10:07 | 53.77018 | 26.51336 | 37831 ft | 436 kts | 225° |
| 2026-05-06 10:08 | 53.72691 | 26.44162 | 37832 ft | 436 kts | 225° |
| 2026-05-06 10:08 | 53.68370 | 26.36981 | 37832 ft | 436 kts | 225° |
| 2026-05-06 10:09 | 53.64048 | 26.29806 | 37832 ft | 436 kts | 225° |
| 2026-05-06 10:09 | 53.59725 | 26.22649 | 37829 ft | 436 kts | 225° |
| 2026-05-06 10:10 | 53.55388 | 26.15492 | 37825 ft | 437 kts | 225° |
| 2026-05-06 10:10 | 53.51046 | 26.08351 | 37822 ft | 437 kts | 225° |
| 2026-05-06 10:11 | 53.46699 | 26.01224 | 37824 ft | 437 kts | 225° |
| 2026-05-06 10:11 | 53.42352 | 25.94116 | 37822 ft | 436 kts | 225° |
| 2026-05-06 10:12 | 53.38020 | 25.87056 | 37821 ft | 436 kts | 225° |
| 2026-05-06 10:12 | 53.33660 | 25.79970 | 37820 ft | 436 kts | 225° |
| 2026-05-06 10:13 | 53.29318 | 25.72936 | 37821 ft | 436 kts | 225° |
| 2026-05-06 10:13 | 53.24959 | 25.65895 | 37820 ft | 436 kts | 225° |
| 2026-05-06 10:14 | 53.20610 | 25.58892 | 37822 ft | 436 kts | 225° |
| 2026-05-06 10:14 | 53.16232 | 25.51862 | 37819 ft | 436 kts | 225° |
| 2026-05-06 10:15 | 53.11855 | 25.44853 | 37816 ft | 436 kts | 225° |
| 2026-05-06 10:15 | 53.07469 | 25.37854 | 37816 ft | 436 kts | 225° |
| 2026-05-06 10:16 | 53.03083 | 25.30874 | 37807 ft | 437 kts | 224° |
| 2026-05-06 10:16 | 52.98709 | 25.23933 | 37805 ft | 438 kts | 224° |
| 2026-05-06 10:17 | 52.94295 | 25.16951 | 37805 ft | 438 kts | 224° |
| 2026-05-06 10:17 | 52.89883 | 25.09992 | 37809 ft | 438 kts | 224° |
| 2026-05-06 10:18 | 52.85471 | 25.03053 | 37799 ft | 438 kts | 224° |
| 2026-05-06 10:18 | 52.81041 | 24.96107 | 37806 ft | 439 kts | 224° |
| 2026-05-06 10:19 | 52.76634 | 24.89217 | 37797 ft | 439 kts | 224° |
| 2026-05-06 10:19 | 52.72193 | 24.82294 | 37808 ft | 439 kts | 224° |
| 2026-05-06 10:20 | 52.67742 | 24.75376 | 37789 ft | 439 kts | 224° |
| 2026-05-06 10:20 | 52.63287 | 24.68472 | 37796 ft | 439 kts | 224° |
| 2026-05-06 10:21 | 52.58824 | 24.61575 | 37793 ft | 440 kts | 224° |
| 2026-05-06 10:21 | 52.54379 | 24.54727 | 37788 ft | 440 kts | 224° |
| 2026-05-06 10:22 | 52.49895 | 24.47840 | 37790 ft | 440 kts | 224° |
| 2026-05-06 10:22 | 52.45419 | 24.40984 | 37778 ft | 440 kts | 224° |
| 2026-05-06 10:23 | 52.40929 | 24.34127 | 37788 ft | 441 kts | 224° |
| 2026-05-06 10:23 | 52.36422 | 24.27265 | 37789 ft | 441 kts | 224° |
| 2026-05-06 10:24 | 52.31952 | 24.20477 | 37778 ft | 441 kts | 224° |
| 2026-05-06 10:24 | 52.27448 | 24.13658 | 37778 ft | 441 kts | 224° |
| 2026-05-06 10:25 | 52.22939 | 24.06852 | 37779 ft | 441 kts | 224° |
| 2026-05-06 10:25 | 52.18431 | 24.00068 | 37772 ft | 440 kts | 224° |
| 2026-05-06 10:26 | 52.13921 | 23.93298 | 37776 ft | 441 kts | 224° |
| 2026-05-06 10:26 | 52.09812 | 23.85938 | 37774 ft | 439 kts | 234° |
| 2026-05-06 10:27 | 52.06306 | 23.77877 | 37770 ft | 439 kts | 236° |
| 2026-05-06 10:27 | 52.02800 | 23.69770 | 37781 ft | 439 kts | 231° |
| 2026-05-06 10:28 | 51.98325 | 23.63056 | 37783 ft | 439 kts | 217° |
| 2026-05-06 10:28 | 51.93277 | 23.57452 | 37786 ft | 440 kts | 214° |
| 2026-05-06 10:29 | 51.88122 | 23.52053 | 37785 ft | 440 kts | 214° |
| 2026-05-06 10:29 | 51.82975 | 23.46672 | 37781 ft | 440 kts | 214° |
| 2026-05-06 10:30 | 51.77854 | 23.41288 | 37794 ft | 438 kts | 214° |
| 2026-05-06 10:30 | 51.72743 | 23.35905 | 37789 ft | 439 kts | 214° |
| 2026-05-06 10:31 | 51.68494 | 23.31438 | 37792 ft | 438 kts | 214° |
| 2026-05-06 10:31 | 51.62545 | 23.25204 | 37790 ft | 438 kts | 214° |
| 2026-05-06 10:32 | 51.58291 | 23.20762 | 37792 ft | 437 kts | 214° |
| 2026-05-06 10:32 | 51.53180 | 23.15433 | 37798 ft | 438 kts | 214° |
| 2026-05-06 10:33 | 51.48076 | 23.10127 | 37801 ft | 437 kts | 214° |
| 2026-05-06 10:33 | 51.42955 | 23.04819 | 37795 ft | 438 kts | 213° |
| 2026-05-06 10:34 | 51.37541 | 23.00389 | 37798 ft | 438 kts | 200° |
| 2026-05-06 10:34 | 51.36894 | 23.00044 | 37800 ft | 439 kts | 198° |
| 2026-05-06 10:35 | 51.32765 | 22.98318 | 37800 ft | 440 kts | 195° |
| 2026-05-06 10:35 | 51.26756 | 22.96258 | 37800 ft | 441 kts | 193° |
| 2026-05-06 10:36 | 51.20733 | 22.94314 | 37789 ft | 441 kts | 193° |
| 2026-05-06 10:36 | 51.14752 | 22.92356 | 37801 ft | 443 kts | 194° |
| 2026-05-06 10:37 | 51.08708 | 22.90350 | 37803 ft | 443 kts | 194° |
| 2026-05-06 10:37 | 51.02666 | 22.88338 | 37805 ft | 444 kts | 194° |
| 2026-05-06 10:38 | 50.96616 | 22.86326 | 37806 ft | 444 kts | 194° |
| 2026-05-06 10:38 | 50.90627 | 22.84344 | 37815 ft | 442 kts | 194° |
| 2026-05-06 10:39 | 50.84593 | 22.82350 | 37823 ft | 444 kts | 194° |
| 2026-05-06 10:39 | 50.78546 | 22.80359 | 37823 ft | 442 kts | 194° |
| 2026-05-06 10:40 | 50.72520 | 22.78382 | 37820 ft | 442 kts | 194° |
| 2026-05-06 10:40 | 50.66481 | 22.76405 | 37821 ft | 442 kts | 194° |
| 2026-05-06 10:41 | 50.60496 | 22.74448 | 37835 ft | 441 kts | 194° |
| 2026-05-06 10:41 | 50.54475 | 22.72485 | 37837 ft | 442 kts | 194° |
| 2026-05-06 10:42 | 50.48448 | 22.70526 | 37836 ft | 442 kts | 194° |
| 2026-05-06 10:42 | 50.42439 | 22.68579 | 37837 ft | 440 kts | 193° |
| 2026-05-06 10:43 | 50.36419 | 22.66632 | 37838 ft | 441 kts | 194° |
| 2026-05-06 10:44 | 50.27422 | 22.63732 | 37837 ft | 440 kts | 194° |
| 2026-05-06 10:44 | 50.21392 | 22.61797 | 37853 ft | 444 kts | 194° |
| 2026-05-06 10:45 | 50.15325 | 22.59854 | 37858 ft | 445 kts | 194° |
| 2026-05-06 10:45 | 50.09294 | 22.57925 | 37857 ft | 445 kts | 194° |
| 2026-05-06 10:46 | 50.03215 | 22.55987 | 37866 ft | 445 kts | 194° |
| 2026-05-06 10:46 | 49.97145 | 22.54057 | 37865 ft | 445 kts | 194° |
| 2026-05-06 10:47 | 49.91080 | 22.52133 | 37879 ft | 445 kts | 194° |
| 2026-05-06 10:47 | 49.85005 | 22.50213 | 37887 ft | 445 kts | 194° |
| 2026-05-06 10:48 | 49.78968 | 22.48308 | 37878 ft | 445 kts | 193° |